sensor_id;sensor_type;location;lat;lon;timestamp;P1;durP1;ratioP1;P2;durP2;ratioP2
39750;SDS011;37579;51.074;17.004;2023-12-20T00:01:32;4.22;;;1.70;;
39750;SDS011;37579;51.074;17.004;2023-12-20T00:03:57;3.85;;;1.60;;
39750;SDS011;37579;51.074;17.004;2023-12-20T00:06:23;3.83;;;1.80;;
39750;SDS011;37579;51.074;17.004;2023-12-20T00:08:49;4.60;;;2.03;;
39750;SDS011;37579;51.074;17.004;2023-12-20T00:11:15;4.60;;;1.90;;
39750;SDS011;37579;51.074;17.004;2023-12-20T00:13:40;3.20;;;1.67;;
39750;SDS011;37579;51.074;17.004;2023-12-20T00:16:06;3.42;;;1.70;;
39750;SDS011;37579;51.074;17.004;2023-12-20T00:18:32;2.50;;;1.63;;
39750;SDS011;37579;51.074;17.004;2023-12-20T00:20:57;2.92;;;1.65;;
39750;SDS011;37579;51.074;17.004;2023-12-20T00:23:23;2.50;;;1.52;;
39750;SDS011;37579;51.074;17.004;2023-12-20T00:25:49;1.73;;;1.10;;
39750;SDS011;37579;51.074;17.004;2023-12-20T00:28:15;2.55;;;1.45;;
39750;SDS011;37579;51.074;17.004;2023-12-20T00:30:41;4.50;;;1.55;;
39750;SDS011;37579;51.074;17.004;2023-12-20T00:33:06;2.67;;;1.80;;
39750;SDS011;37579;51.074;17.004;2023-12-20T00:35:32;3.13;;;1.80;;
39750;SDS011;37579;51.074;17.004;2023-12-20T00:37:58;2.75;;;1.40;;
39750;SDS011;37579;51.074;17.004;2023-12-20T00:40:24;4.65;;;1.60;;
39750;SDS011;37579;51.074;17.004;2023-12-20T00:42:50;3.42;;;1.70;;
39750;SDS011;37579;51.074;17.004;2023-12-20T00:45:16;2.58;;;1.58;;
39750;SDS011;37579;51.074;17.004;2023-12-20T00:47:41;2.05;;;1.35;;
39750;SDS011;37579;51.074;17.004;2023-12-20T00:50:08;3.58;;;1.80;;
39750;SDS011;37579;51.074;17.004;2023-12-20T00:52:34;2.33;;;1.50;;
39750;SDS011;37579;51.074;17.004;2023-12-20T00:55:00;3.38;;;1.40;;
39750;SDS011;37579;51.074;17.004;2023-12-20T00:57:25;2.40;;;1.30;;
39750;SDS011;37579;51.074;17.004;2023-12-20T00:59:51;2.22;;;1.33;;
39750;SDS011;37579;51.074;17.004;2023-12-20T01:02:17;3.88;;;1.73;;
39750;SDS011;37579;51.074;17.004;2023-12-20T01:04:43;2.58;;;1.40;;
39750;SDS011;37579;51.074;17.004;2023-12-20T01:07:08;2.75;;;1.80;;
39750;SDS011;37579;51.074;17.004;2023-12-20T01:09:34;3.15;;;1.58;;
39750;SDS011;37579;51.074;17.004;2023-12-20T01:12:00;2.92;;;1.40;;
39750;SDS011;37579;51.074;17.004;2023-12-20T01:14:26;4.05;;;1.52;;
39750;SDS011;37579;51.074;17.004;2023-12-20T01:16:51;3.40;;;1.50;;
39750;SDS011;37579;51.074;17.004;2023-12-20T01:19:17;2.63;;;1.63;;
39750;SDS011;37579;51.074;17.004;2023-12-20T01:21:43;2.40;;;1.30;;
39750;SDS011;37579;51.074;17.004;2023-12-20T01:24:08;2.47;;;1.35;;
39750;SDS011;37579;51.074;17.004;2023-12-20T01:26:34;2.63;;;1.60;;
39750;SDS011;37579;51.074;17.004;2023-12-20T01:29:00;3.28;;;1.50;;
39750;SDS011;37579;51.074;17.004;2023-12-20T01:31:26;2.50;;;1.40;;
39750;SDS011;37579;51.074;17.004;2023-12-20T01:33:52;2.90;;;1.42;;
39750;SDS011;37579;51.074;17.004;2023-12-20T01:36:18;3.10;;;1.45;;
39750;SDS011;37579;51.074;17.004;2023-12-20T01:38:44;3.47;;;1.58;;
39750;SDS011;37579;51.074;17.004;2023-12-20T01:41:10;2.80;;;1.30;;
39750;SDS011;37579;51.074;17.004;2023-12-20T01:43:36;2.13;;;1.30;;
39750;SDS011;37579;51.074;17.004;2023-12-20T01:46:02;3.28;;;1.50;;
39750;SDS011;37579;51.074;17.004;2023-12-20T01:48:28;3.13;;;1.50;;
39750;SDS011;37579;51.074;17.004;2023-12-20T01:50:56;2.00;;;1.25;;
39750;SDS011;37579;51.074;17.004;2023-12-20T01:53:23;2.97;;;1.40;;
39750;SDS011;37579;51.074;17.004;2023-12-20T01:55:50;2.17;;;1.35;;
39750;SDS011;37579;51.074;17.004;2023-12-20T01:58:19;2.65;;;1.30;;
39750;SDS011;37579;51.074;17.004;2023-12-20T02:00:45;2.40;;;1.20;;
39750;SDS011;37579;51.074;17.004;2023-12-20T02:03:12;2.63;;;1.40;;
39750;SDS011;37579;51.074;17.004;2023-12-20T02:05:37;3.03;;;1.40;;
39750;SDS011;37579;51.074;17.004;2023-12-20T02:08:04;3.03;;;1.20;;
39750;SDS011;37579;51.074;17.004;2023-12-20T02:10:31;1.98;;;1.25;;
39750;SDS011;37579;51.074;17.004;2023-12-20T02:12:57;2.53;;;1.33;;
39750;SDS011;37579;51.074;17.004;2023-12-20T02:15:23;3.17;;;1.23;;
39750;SDS011;37579;51.074;17.004;2023-12-20T02:17:49;2.00;;;1.30;;
39750;SDS011;37579;51.074;17.004;2023-12-20T02:20:16;2.03;;;1.20;;
39750;SDS011;37579;51.074;17.004;2023-12-20T02:22:41;2.28;;;1.30;;
39750;SDS011;37579;51.074;17.004;2023-12-20T02:25:07;2.10;;;1.30;;
39750;SDS011;37579;51.074;17.004;2023-12-20T02:27:34;2.05;;;1.33;;
39750;SDS011;37579;51.074;17.004;2023-12-20T02:30:00;2.13;;;1.15;;
39750;SDS011;37579;51.074;17.004;2023-12-20T02:32:26;2.67;;;1.13;;
39750;SDS011;37579;51.074;17.004;2023-12-20T02:34:53;2.28;;;1.17;;
39750;SDS011;37579;51.074;17.004;2023-12-20T02:37:20;2.25;;;1.30;;
39750;SDS011;37579;51.074;17.004;2023-12-20T02:39:46;1.77;;;1.13;;
39750;SDS011;37579;51.074;17.004;2023-12-20T02:42:12;2.08;;;1.10;;
39750;SDS011;37579;51.074;17.004;2023-12-20T02:44:38;2.58;;;1.30;;
39750;SDS011;37579;51.074;17.004;2023-12-20T02:47:04;1.55;;;0.90;;
39750;SDS011;37579;51.074;17.004;2023-12-20T02:49:29;2.03;;;1.20;;
39750;SDS011;37579;51.074;17.004;2023-12-20T02:51:55;2.47;;;1.05;;
39750;SDS011;37579;51.074;17.004;2023-12-20T02:54:21;1.58;;;0.88;;
39750;SDS011;37579;51.074;17.004;2023-12-20T02:56:47;2.50;;;1.23;;
39750;SDS011;37579;51.074;17.004;2023-12-20T02:59:13;3.92;;;1.33;;
39750;SDS011;37579;51.074;17.004;2023-12-20T03:01:43;2.50;;;1.30;;
39750;SDS011;37579;51.074;17.004;2023-12-20T03:04:09;1.42;;;1.08;;
39750;SDS011;37579;51.074;17.004;2023-12-20T03:06:35;1.63;;;1.00;;
39750;SDS011;37579;51.074;17.004;2023-12-20T03:09:01;1.83;;;1.10;;
39750;SDS011;37579;51.074;17.004;2023-12-20T03:11:27;2.47;;;1.27;;
39750;SDS011;37579;51.074;17.004;2023-12-20T03:13:53;1.67;;;1.10;;
39750;SDS011;37579;51.074;17.004;2023-12-20T03:16:20;2.05;;;1.20;;
39750;SDS011;37579;51.074;17.004;2023-12-20T03:18:45;2.15;;;1.23;;
39750;SDS011;37579;51.074;17.004;2023-12-20T03:21:11;2.38;;;1.20;;
39750;SDS011;37579;51.074;17.004;2023-12-20T03:23:37;2.42;;;1.33;;
39750;SDS011;37579;51.074;17.004;2023-12-20T03:26:03;2.10;;;1.15;;
39750;SDS011;37579;51.074;17.004;2023-12-20T03:28:31;3.22;;;1.45;;
39750;SDS011;37579;51.074;17.004;2023-12-20T03:30:57;1.25;;;0.93;;
39750;SDS011;37579;51.074;17.004;2023-12-20T03:33:23;1.85;;;1.00;;
39750;SDS011;37579;51.074;17.004;2023-12-20T03:35:48;1.83;;;1.23;;
39750;SDS011;37579;51.074;17.004;2023-12-20T03:38:14;1.77;;;1.13;;
39750;SDS011;37579;51.074;17.004;2023-12-20T03:40:40;2.30;;;1.15;;
39750;SDS011;37579;51.074;17.004;2023-12-20T03:43:06;1.80;;;1.20;;
39750;SDS011;37579;51.074;17.004;2023-12-20T03:45:31;1.55;;;0.95;;
39750;SDS011;37579;51.074;17.004;2023-12-20T03:47:57;1.88;;;0.90;;
39750;SDS011;37579;51.074;17.004;2023-12-20T03:50:23;1.73;;;1.10;;
39750;SDS011;37579;51.074;17.004;2023-12-20T03:52:49;1.73;;;0.90;;
39750;SDS011;37579;51.074;17.004;2023-12-20T03:55:14;1.30;;;1.02;;
39750;SDS011;37579;51.074;17.004;2023-12-20T03:57:40;2.97;;;0.93;;
39750;SDS011;37579;51.074;17.004;2023-12-20T04:00:09;4.55;;;2.08;;
39750;SDS011;37579;51.074;17.004;2023-12-20T04:02:38;2.95;;;1.20;;
39750;SDS011;37579;51.074;17.004;2023-12-20T04:05:08;1.90;;;1.02;;
39750;SDS011;37579;51.074;17.004;2023-12-20T04:07:35;1.75;;;0.93;;
39750;SDS011;37579;51.074;17.004;2023-12-20T04:10:01;1.77;;;0.98;;
39750;SDS011;37579;51.074;17.004;2023-12-20T04:12:28;1.90;;;0.90;;
39750;SDS011;37579;51.074;17.004;2023-12-20T04:14:54;1.77;;;1.00;;
39750;SDS011;37579;51.074;17.004;2023-12-20T04:17:20;1.63;;;1.10;;
39750;SDS011;37579;51.074;17.004;2023-12-20T04:19:48;2.25;;;1.08;;
39750;SDS011;37579;51.074;17.004;2023-12-20T04:22:14;3.17;;;1.02;;
39750;SDS011;37579;51.074;17.004;2023-12-20T04:24:40;1.70;;;0.80;;
39750;SDS011;37579;51.074;17.004;2023-12-20T04:27:09;1.77;;;1.10;;
39750;SDS011;37579;51.074;17.004;2023-12-20T04:29:35;2.38;;;1.02;;
39750;SDS011;37579;51.074;17.004;2023-12-20T04:32:00;1.35;;;0.93;;
39750;SDS011;37579;51.074;17.004;2023-12-20T04:34:26;1.65;;;0.93;;
39750;SDS011;37579;51.074;17.004;2023-12-20T04:36:52;1.13;;;0.82;;
39750;SDS011;37579;51.074;17.004;2023-12-20T04:39:18;1.35;;;1.00;;
39750;SDS011;37579;51.074;17.004;2023-12-20T04:41:44;1.80;;;0.77;;
39750;SDS011;37579;51.074;17.004;2023-12-20T04:44:10;1.60;;;0.88;;
39750;SDS011;37579;51.074;17.004;2023-12-20T04:46:35;1.42;;;0.90;;
39750;SDS011;37579;51.074;17.004;2023-12-20T04:49:01;1.10;;;0.80;;
39750;SDS011;37579;51.074;17.004;2023-12-20T04:51:27;2.08;;;0.80;;
39750;SDS011;37579;51.074;17.004;2023-12-20T04:53:53;1.33;;;0.80;;
39750;SDS011;37579;51.074;17.004;2023-12-20T04:56:19;1.38;;;0.85;;
39750;SDS011;37579;51.074;17.004;2023-12-20T04:58:44;1.08;;;0.70;;
39750;SDS011;37579;51.074;17.004;2023-12-20T05:01:10;1.23;;;0.70;;
39750;SDS011;37579;51.074;17.004;2023-12-20T05:03:37;1.20;;;0.75;;
39750;SDS011;37579;51.074;17.004;2023-12-20T05:06:02;1.08;;;0.98;;
39750;SDS011;37579;51.074;17.004;2023-12-20T05:08:28;0.90;;;0.70;;
39750;SDS011;37579;51.074;17.004;2023-12-20T05:10:54;1.77;;;0.80;;
39750;SDS011;37579;51.074;17.004;2023-12-20T05:13:20;1.63;;;0.77;;
39750;SDS011;37579;51.074;17.004;2023-12-20T05:15:46;1.67;;;0.80;;
39750;SDS011;37579;51.074;17.004;2023-12-20T05:18:13;1.60;;;0.80;;
39750;SDS011;37579;51.074;17.004;2023-12-20T05:20:39;1.23;;;0.70;;
39750;SDS011;37579;51.074;17.004;2023-12-20T05:23:05;1.63;;;0.80;;
39750;SDS011;37579;51.074;17.004;2023-12-20T05:25:31;1.30;;;0.50;;
39750;SDS011;37579;51.074;17.004;2023-12-20T05:27:57;0.70;;;0.60;;
39750;SDS011;37579;51.074;17.004;2023-12-20T05:30:23;1.30;;;0.82;;
39750;SDS011;37579;51.074;17.004;2023-12-20T05:32:49;1.33;;;0.60;;
39750;SDS011;37579;51.074;17.004;2023-12-20T05:35:14;1.60;;;0.60;;
39750;SDS011;37579;51.074;17.004;2023-12-20T05:37:40;1.25;;;0.70;;
39750;SDS011;37579;51.074;17.004;2023-12-20T05:40:07;1.52;;;0.70;;
39750;SDS011;37579;51.074;17.004;2023-12-20T05:42:36;1.00;;;0.45;;
39750;SDS011;37579;51.074;17.004;2023-12-20T05:45:03;0.93;;;0.50;;
39750;SDS011;37579;51.074;17.004;2023-12-20T05:47:29;1.52;;;0.60;;
39750;SDS011;37579;51.074;17.004;2023-12-20T05:49:55;0.77;;;0.57;;
39750;SDS011;37579;51.074;17.004;2023-12-20T05:52:20;1.23;;;0.60;;
39750;SDS011;37579;51.074;17.004;2023-12-20T05:54:47;1.25;;;0.57;;
39750;SDS011;37579;51.074;17.004;2023-12-20T05:57:12;0.90;;;0.60;;
39750;SDS011;37579;51.074;17.004;2023-12-20T05:59:38;0.85;;;0.65;;
39750;SDS011;37579;51.074;17.004;2023-12-20T06:02:04;1.60;;;0.60;;
39750;SDS011;37579;51.074;17.004;2023-12-20T06:04:30;0.82;;;0.63;;
39750;SDS011;37579;51.074;17.004;2023-12-20T06:06:56;0.63;;;0.47;;
39750;SDS011;37579;51.074;17.004;2023-12-20T06:09:22;0.73;;;0.60;;
39750;SDS011;37579;51.074;17.004;2023-12-20T06:11:49;1.13;;;0.52;;
39750;SDS011;37579;51.074;17.004;2023-12-20T06:14:15;0.60;;;0.60;;
39750;SDS011;37579;51.074;17.004;2023-12-20T06:16:41;1.00;;;0.60;;
39750;SDS011;37579;51.074;17.004;2023-12-20T06:19:08;1.20;;;0.60;;
39750;SDS011;37579;51.074;17.004;2023-12-20T06:21:33;0.50;;;0.40;;
39750;SDS011;37579;51.074;17.004;2023-12-20T06:23:59;1.38;;;0.60;;
39750;SDS011;37579;51.074;17.004;2023-12-20T06:26:25;0.88;;;0.47;;
39750;SDS011;37579;51.074;17.004;2023-12-20T06:28:51;0.85;;;0.40;;
39750;SDS011;37579;51.074;17.004;2023-12-20T06:31:17;0.93;;;0.50;;
39750;SDS011;37579;51.074;17.004;2023-12-20T06:33:43;0.90;;;0.50;;
39750;SDS011;37579;51.074;17.004;2023-12-20T06:36:12;0.85;;;0.52;;
39750;SDS011;37579;51.074;17.004;2023-12-20T06:38:38;0.77;;;0.47;;
39750;SDS011;37579;51.074;17.004;2023-12-20T06:41:04;1.05;;;0.60;;
39750;SDS011;37579;51.074;17.004;2023-12-20T06:43:31;0.47;;;0.40;;
39750;SDS011;37579;51.074;17.004;2023-12-20T06:45:57;1.05;;;0.60;;
39750;SDS011;37579;51.074;17.004;2023-12-20T06:48:23;1.17;;;0.65;;
39750;SDS011;37579;51.074;17.004;2023-12-20T06:50:49;0.68;;;0.45;;
39750;SDS011;37579;51.074;17.004;2023-12-20T06:53:15;1.05;;;0.40;;
39750;SDS011;37579;51.074;17.004;2023-12-20T06:55:41;1.25;;;0.80;;
39750;SDS011;37579;51.074;17.004;2023-12-20T06:58:07;1.48;;;0.50;;
39750;SDS011;37579;51.074;17.004;2023-12-20T07:00:34;0.95;;;0.55;;
39750;SDS011;37579;51.074;17.004;2023-12-20T07:02:59;1.48;;;0.43;;
39750;SDS011;37579;51.074;17.004;2023-12-20T07:05:25;1.08;;;0.50;;
39750;SDS011;37579;51.074;17.004;2023-12-20T07:07:51;1.42;;;0.57;;
39750;SDS011;37579;51.074;17.004;2023-12-20T07:10:17;0.80;;;0.52;;
39750;SDS011;37579;51.074;17.004;2023-12-20T07:12:43;1.10;;;0.40;;
39750;SDS011;37579;51.074;17.004;2023-12-20T07:15:09;1.00;;;0.40;;
39750;SDS011;37579;51.074;17.004;2023-12-20T07:17:35;1.67;;;0.57;;
39750;SDS011;37579;51.074;17.004;2023-12-20T07:20:01;1.48;;;0.60;;
39750;SDS011;37579;51.074;17.004;2023-12-20T07:22:31;0.68;;;0.43;;
39750;SDS011;37579;51.074;17.004;2023-12-20T07:24:58;0.70;;;0.32;;
39750;SDS011;37579;51.074;17.004;2023-12-20T07:27:24;1.25;;;0.30;;
39750;SDS011;37579;51.074;17.004;2023-12-20T07:29:51;0.77;;;0.50;;
39750;SDS011;37579;51.074;17.004;2023-12-20T07:32:16;1.05;;;0.50;;
39750;SDS011;37579;51.074;17.004;2023-12-20T07:34:42;1.70;;;0.50;;
39750;SDS011;37579;51.074;17.004;2023-12-20T07:37:08;0.45;;;0.35;;
39750;SDS011;37579;51.074;17.004;2023-12-20T07:39:41;0.63;;;0.40;;
39750;SDS011;37579;51.074;17.004;2023-12-20T07:42:07;1.38;;;0.60;;
39750;SDS011;37579;51.074;17.004;2023-12-20T07:44:34;0.90;;;0.40;;
39750;SDS011;37579;51.074;17.004;2023-12-20T07:47:01;1.25;;;0.40;;
39750;SDS011;37579;51.074;17.004;2023-12-20T07:49:27;0.60;;;0.50;;
39750;SDS011;37579;51.074;17.004;2023-12-20T07:51:53;0.85;;;0.50;;
39750;SDS011;37579;51.074;17.004;2023-12-20T07:54:18;0.82;;;0.40;;
39750;SDS011;37579;51.074;17.004;2023-12-20T07:56:45;0.80;;;0.43;;
39750;SDS011;37579;51.074;17.004;2023-12-20T07:59:12;0.90;;;0.50;;
39750;SDS011;37579;51.074;17.004;2023-12-20T08:01:37;1.00;;;0.47;;
39750;SDS011;37579;51.074;17.004;2023-12-20T08:04:03;1.30;;;0.50;;
39750;SDS011;37579;51.074;17.004;2023-12-20T08:06:29;0.85;;;0.50;;
39750;SDS011;37579;51.074;17.004;2023-12-20T08:08:55;1.67;;;0.40;;
39750;SDS011;37579;51.074;17.004;2023-12-20T08:11:20;1.20;;;0.52;;
39750;SDS011;37579;51.074;17.004;2023-12-20T08:13:46;0.55;;;0.40;;
39750;SDS011;37579;51.074;17.004;2023-12-20T08:16:12;0.82;;;0.50;;
39750;SDS011;37579;51.074;17.004;2023-12-20T08:18:38;0.68;;;0.40;;
39750;SDS011;37579;51.074;17.004;2023-12-20T08:21:04;0.73;;;0.40;;
39750;SDS011;37579;51.074;17.004;2023-12-20T08:23:32;0.63;;;0.40;;
39750;SDS011;37579;51.074;17.004;2023-12-20T08:26:03;1.30;;;0.40;;
39750;SDS011;37579;51.074;17.004;2023-12-20T08:28:30;0.77;;;0.35;;
39750;SDS011;37579;51.074;17.004;2023-12-20T08:30:56;0.73;;;0.38;;
39750;SDS011;37579;51.074;17.004;2023-12-20T08:33:22;1.05;;;0.40;;
39750;SDS011;37579;51.074;17.004;2023-12-20T08:35:47;0.60;;;0.40;;
39750;SDS011;37579;51.074;17.004;2023-12-20T08:38:13;2.15;;;0.50;;
39750;SDS011;37579;51.074;17.004;2023-12-20T08:40:39;0.73;;;0.47;;
39750;SDS011;37579;51.074;17.004;2023-12-20T08:43:05;1.40;;;0.45;;
39750;SDS011;37579;51.074;17.004;2023-12-20T08:45:31;1.77;;;0.50;;
39750;SDS011;37579;51.074;17.004;2023-12-20T08:47:56;0.65;;;0.40;;
39750;SDS011;37579;51.074;17.004;2023-12-20T08:50:22;2.70;;;0.60;;
39750;SDS011;37579;51.074;17.004;2023-12-20T08:52:48;0.70;;;0.30;;
39750;SDS011;37579;51.074;17.004;2023-12-20T08:55:14;0.43;;;0.30;;
39750;SDS011;37579;51.074;17.004;2023-12-20T08:57:41;1.88;;;0.70;;
39750;SDS011;37579;51.074;17.004;2023-12-20T09:00:07;2.88;;;1.20;;
39750;SDS011;37579;51.074;17.004;2023-12-20T09:02:33;1.70;;;1.60;;
39750;SDS011;37579;51.074;17.004;2023-12-20T09:05:01;2.72;;;1.50;;
39750;SDS011;37579;51.074;17.004;2023-12-20T09:07:27;1.92;;;1.77;;
39750;SDS011;37579;51.074;17.004;2023-12-20T09:09:55;2.33;;;1.50;;
39750;SDS011;37579;51.074;17.004;2023-12-20T09:12:21;2.05;;;1.40;;
39750;SDS011;37579;51.074;17.004;2023-12-20T09:14:48;2.60;;;2.00;;
39750;SDS011;37579;51.074;17.004;2023-12-20T09:17:14;3.85;;;1.75;;
39750;SDS011;37579;51.074;17.004;2023-12-20T09:19:41;4.78;;;1.67;;
39750;SDS011;37579;51.074;17.004;2023-12-20T09:22:09;1.55;;;1.45;;
39750;SDS011;37579;51.074;17.004;2023-12-20T09:24:34;2.78;;;1.30;;
39750;SDS011;37579;51.074;17.004;2023-12-20T09:27:00;2.80;;;1.50;;
39750;SDS011;37579;51.074;17.004;2023-12-20T09:29:26;1.85;;;1.50;;
39750;SDS011;37579;51.074;17.004;2023-12-20T09:31:52;3.38;;;1.50;;
39750;SDS011;37579;51.074;17.004;2023-12-20T09:34:18;3.03;;;1.50;;
39750;SDS011;37579;51.074;17.004;2023-12-20T09:36:43;2.58;;;1.30;;
39750;SDS011;37579;51.074;17.004;2023-12-20T09:39:13;2.00;;;1.42;;
39750;SDS011;37579;51.074;17.004;2023-12-20T09:41:42;3.10;;;1.40;;
39750;SDS011;37579;51.074;17.004;2023-12-20T09:44:14;1.95;;;1.63;;
39750;SDS011;37579;51.074;17.004;2023-12-20T09:46:43;1.40;;;1.30;;
39750;SDS011;37579;51.074;17.004;2023-12-20T09:49:11;2.78;;;1.35;;
39750;SDS011;37579;51.074;17.004;2023-12-20T09:51:38;4.40;;;1.33;;
39750;SDS011;37579;51.074;17.004;2023-12-20T09:54:05;1.98;;;1.45;;
39750;SDS011;37579;51.074;17.004;2023-12-20T09:56:31;2.17;;;1.23;;
39750;SDS011;37579;51.074;17.004;2023-12-20T09:58:57;1.20;;;1.10;;
39750;SDS011;37579;51.074;17.004;2023-12-20T10:01:24;2.05;;;1.38;;
39750;SDS011;37579;51.074;17.004;2023-12-20T10:03:50;9.10;;;1.98;;
39750;SDS011;37579;51.074;17.004;2023-12-20T10:06:19;4.80;;;1.83;;
39750;SDS011;37579;51.074;17.004;2023-12-20T10:08:45;2.38;;;1.55;;
39750;SDS011;37579;51.074;17.004;2023-12-20T10:11:11;3.28;;;1.50;;
39750;SDS011;37579;51.074;17.004;2023-12-20T10:13:39;2.67;;;1.50;;
39750;SDS011;37579;51.074;17.004;2023-12-20T10:16:06;2.60;;;1.33;;
39750;SDS011;37579;51.074;17.004;2023-12-20T10:18:32;2.38;;;1.33;;
39750;SDS011;37579;51.074;17.004;2023-12-20T10:20:58;3.25;;;1.20;;
39750;SDS011;37579;51.074;17.004;2023-12-20T10:23:25;2.60;;;1.15;;
39750;SDS011;37579;51.074;17.004;2023-12-20T10:25:57;1.30;;;1.10;;
39750;SDS011;37579;51.074;17.004;2023-12-20T10:28:24;1.85;;;1.48;;
39750;SDS011;37579;51.074;17.004;2023-12-20T10:30:53;1.83;;;1.20;;
39750;SDS011;37579;51.074;17.004;2023-12-20T10:33:25;1.65;;;1.20;;
39750;SDS011;37579;51.074;17.004;2023-12-20T10:35:57;2.35;;;1.20;;
39750;SDS011;37579;51.074;17.004;2023-12-20T10:38:23;1.98;;;1.23;;
39750;SDS011;37579;51.074;17.004;2023-12-20T10:40:49;3.17;;;1.63;;
39750;SDS011;37579;51.074;17.004;2023-12-20T10:43:22;2.60;;;1.50;;
39750;SDS011;37579;51.074;17.004;2023-12-20T10:45:51;2.83;;;1.67;;
39750;SDS011;37579;51.074;17.004;2023-12-20T10:48:17;4.15;;;1.50;;
39750;SDS011;37579;51.074;17.004;2023-12-20T10:50:43;4.60;;;1.70;;
39750;SDS011;37579;51.074;17.004;2023-12-20T10:53:10;4.65;;;1.33;;
39750;SDS011;37579;51.074;17.004;2023-12-20T10:55:37;3.10;;;1.73;;
39750;SDS011;37579;51.074;17.004;2023-12-20T10:58:07;2.38;;;1.38;;
39750;SDS011;37579;51.074;17.004;2023-12-20T11:00:36;2.95;;;1.45;;
39750;SDS011;37579;51.074;17.004;2023-12-20T11:03:08;3.90;;;1.40;;
39750;SDS011;37579;51.074;17.004;2023-12-20T11:05:43;3.55;;;1.33;;
39750;SDS011;37579;51.074;17.004;2023-12-20T11:08:32;4.25;;;1.48;;
39750;SDS011;37579;51.074;17.004;2023-12-20T11:11:11;2.00;;;1.33;;
39750;SDS011;37579;51.074;17.004;2023-12-20T11:13:54;2.80;;;1.13;;
39750;SDS011;37579;51.074;17.004;2023-12-20T11:16:23;3.03;;;1.00;;
39750;SDS011;37579;51.074;17.004;2023-12-20T11:18:50;2.28;;;1.10;;
39750;SDS011;37579;51.074;17.004;2023-12-20T11:21:16;2.65;;;1.02;;
39750;SDS011;37579;51.074;17.004;2023-12-20T11:23:42;3.33;;;1.50;;
39750;SDS011;37579;51.074;17.004;2023-12-20T11:26:08;2.70;;;1.35;;
39750;SDS011;37579;51.074;17.004;2023-12-20T11:28:34;1.70;;;1.10;;
39750;SDS011;37579;51.074;17.004;2023-12-20T11:31:00;4.10;;;1.17;;
39750;SDS011;37579;51.074;17.004;2023-12-20T11:33:30;1.80;;;1.15;;
39750;SDS011;37579;51.074;17.004;2023-12-20T11:36:01;4.10;;;1.00;;
39750;SDS011;37579;51.074;17.004;2023-12-20T11:38:35;4.03;;;1.40;;
39750;SDS011;37579;51.074;17.004;2023-12-20T11:41:14;1.98;;;0.88;;
39750;SDS011;37579;51.074;17.004;2023-12-20T11:43:41;2.75;;;1.27;;
39750;SDS011;37579;51.074;17.004;2023-12-20T11:46:08;4.43;;;1.40;;
39750;SDS011;37579;51.074;17.004;2023-12-20T11:48:35;5.35;;;1.30;;
39750;SDS011;37579;51.074;17.004;2023-12-20T11:51:02;3.03;;;1.10;;
39750;SDS011;37579;51.074;17.004;2023-12-20T11:53:34;4.50;;;1.33;;
39750;SDS011;37579;51.074;17.004;2023-12-20T11:56:00;2.33;;;1.20;;
39750;SDS011;37579;51.074;17.004;2023-12-20T11:58:28;2.65;;;1.25;;
39750;SDS011;37579;51.074;17.004;2023-12-20T12:00:53;2.60;;;0.98;;
39750;SDS011;37579;51.074;17.004;2023-12-20T12:03:20;2.60;;;1.00;;
39750;SDS011;37579;51.074;17.004;2023-12-20T12:05:49;1.73;;;0.98;;
39750;SDS011;37579;51.074;17.004;2023-12-20T12:08:16;2.30;;;1.00;;
39750;SDS011;37579;51.074;17.004;2023-12-20T12:10:43;1.08;;;0.93;;
39750;SDS011;37579;51.074;17.004;2023-12-20T12:13:10;1.75;;;0.98;;
39750;SDS011;37579;51.074;17.004;2023-12-20T12:15:36;9.23;;;1.90;;
39750;SDS011;37579;51.074;17.004;2023-12-20T12:18:03;2.72;;;0.95;;
39750;SDS011;37579;51.074;17.004;2023-12-20T12:20:29;3.92;;;1.10;;
39750;SDS011;37579;51.074;17.004;2023-12-20T12:22:58;3.38;;;0.80;;
39750;SDS011;37579;51.074;17.004;2023-12-20T12:25:25;3.05;;;1.25;;
39750;SDS011;37579;51.074;17.004;2023-12-20T12:27:52;4.75;;;0.93;;
39750;SDS011;37579;51.074;17.004;2023-12-20T12:30:18;3.20;;;1.10;;
39750;SDS011;37579;51.074;17.004;2023-12-20T12:32:44;2.90;;;1.13;;
39750;SDS011;37579;51.074;17.004;2023-12-20T12:35:10;3.35;;;0.70;;
39750;SDS011;37579;51.074;17.004;2023-12-20T12:37:39;1.92;;;1.00;;
39750;SDS011;37579;51.074;17.004;2023-12-20T12:40:09;3.63;;;0.75;;
39750;SDS011;37579;51.074;17.004;2023-12-20T12:42:39;2.40;;;0.95;;
39750;SDS011;37579;51.074;17.004;2023-12-20T12:45:06;3.70;;;0.80;;
39750;SDS011;37579;51.074;17.004;2023-12-20T12:47:33;4.18;;;0.85;;
39750;SDS011;37579;51.074;17.004;2023-12-20T12:49:59;6.63;;;0.90;;
39750;SDS011;37579;51.074;17.004;2023-12-20T12:52:25;3.97;;;0.55;;
39750;SDS011;37579;51.074;17.004;2023-12-20T12:54:52;3.38;;;1.05;;
39750;SDS011;37579;51.074;17.004;2023-12-20T12:57:18;3.92;;;1.00;;
39750;SDS011;37579;51.074;17.004;2023-12-20T12:59:44;3.33;;;1.00;;
39750;SDS011;37579;51.074;17.004;2023-12-20T13:02:14;2.95;;;0.88;;
39750;SDS011;37579;51.074;17.004;2023-12-20T13:04:43;2.72;;;1.10;;
39750;SDS011;37579;51.074;17.004;2023-12-20T13:07:09;5.82;;;1.00;;
39750;SDS011;37579;51.074;17.004;2023-12-20T13:09:38;3.58;;;1.05;;
39750;SDS011;37579;51.074;17.004;2023-12-20T13:12:05;7.07;;;1.88;;
39750;SDS011;37579;51.074;17.004;2023-12-20T13:14:32;14.57;;;2.22;;
39750;SDS011;37579;51.074;17.004;2023-12-20T13:16:59;18.08;;;3.50;;
39750;SDS011;37579;51.074;17.004;2023-12-20T13:19:29;15.93;;;4.43;;
39750;SDS011;37579;51.074;17.004;2023-12-20T13:21:55;30.45;;;6.53;;
39750;SDS011;37579;51.074;17.004;2023-12-20T13:24:21;25.80;;;6.85;;
39750;SDS011;37579;51.074;17.004;2023-12-20T13:26:47;21.30;;;5.88;;
39750;SDS011;37579;51.074;17.004;2023-12-20T13:29:13;21.67;;;5.13;;
39750;SDS011;37579;51.074;17.004;2023-12-20T13:31:38;14.27;;;4.32;;
39750;SDS011;37579;51.074;17.004;2023-12-20T13:34:05;15.73;;;4.32;;
39750;SDS011;37579;51.074;17.004;2023-12-20T13:36:31;14.15;;;4.40;;
39750;SDS011;37579;51.074;17.004;2023-12-20T13:38:57;13.75;;;4.03;;
39750;SDS011;37579;51.074;17.004;2023-12-20T13:41:23;15.70;;;3.88;;
39750;SDS011;37579;51.074;17.004;2023-12-20T13:43:49;16.88;;;3.53;;
39750;SDS011;37579;51.074;17.004;2023-12-20T13:46:14;13.63;;;3.72;;
39750;SDS011;37579;51.074;17.004;2023-12-20T13:48:40;16.38;;;3.75;;
39750;SDS011;37579;51.074;17.004;2023-12-20T13:51:06;13.45;;;3.22;;
39750;SDS011;37579;51.074;17.004;2023-12-20T13:53:32;9.32;;;3.63;;
39750;SDS011;37579;51.074;17.004;2023-12-20T13:55:58;13.23;;;3.45;;
39750;SDS011;37579;51.074;17.004;2023-12-20T13:58:25;12.88;;;3.13;;
39750;SDS011;37579;51.074;17.004;2023-12-20T14:00:51;13.38;;;3.40;;
39750;SDS011;37579;51.074;17.004;2023-12-20T14:03:17;10.68;;;2.97;;
39750;SDS011;37579;51.074;17.004;2023-12-20T14:05:43;13.50;;;2.60;;
39750;SDS011;37579;51.074;17.004;2023-12-20T14:08:08;9.88;;;2.75;;
39750;SDS011;37579;51.074;17.004;2023-12-20T14:10:35;10.77;;;2.95;;
39750;SDS011;37579;51.074;17.004;2023-12-20T14:13:00;9.50;;;2.80;;
39750;SDS011;37579;51.074;17.004;2023-12-20T14:15:26;10.55;;;2.83;;
39750;SDS011;37579;51.074;17.004;2023-12-20T14:17:52;8.25;;;2.40;;
39750;SDS011;37579;51.074;17.004;2023-12-20T14:20:18;9.98;;;2.50;;
39750;SDS011;37579;51.074;17.004;2023-12-20T14:22:44;9.32;;;2.70;;
39750;SDS011;37579;51.074;17.004;2023-12-20T14:25:13;11.43;;;2.38;;
39750;SDS011;37579;51.074;17.004;2023-12-20T14:27:39;8.68;;;2.30;;
39750;SDS011;37579;51.074;17.004;2023-12-20T14:30:08;6.25;;;2.10;;